sensor_id;sensor_type;location;lat;lon;timestamp;pressure;altitude;pressure_sealevel;temperature;humidity
30516;BME280;17297;54.022;10.760;2023-05-01T00:01:16;102063.75;;;10.46;53.44
30516;BME280;17297;54.022;10.760;2023-05-01T00:03:42;102056.69;;;10.45;53.30
30516;BME280;17297;54.022;10.760;2023-05-01T00:06:07;102055.16;;;10.42;53.24
30516;BME280;17297;54.022;10.760;2023-05-01T00:08:33;102060.72;;;10.40;53.29
30516;BME280;17297;54.022;10.760;2023-05-01T00:11:02;102049.28;;;10.38;53.47
30516;BME280;17297;54.022;10.760;2023-05-01T00:13:28;102050.44;;;10.36;53.31
30516;BME280;17297;54.022;10.760;2023-05-01T00:15:53;102053.28;;;10.34;53.60
30516;BME280;17297;54.022;10.760;2023-05-01T00:18:19;102047.22;;;10.32;53.61
30516;BME280;17297;54.022;10.760;2023-05-01T00:20:45;102049.22;;;10.30;53.42
30516;BME280;17297;54.022;10.760;2023-05-01T00:23:10;102051.25;;;10.28;53.60
30516;BME280;17297;54.022;10.760;2023-05-01T00:25:36;102050.53;;;10.26;53.52
30516;BME280;17297;54.022;10.760;2023-05-01T00:28:02;102047.31;;;10.23;53.72
30516;BME280;17297;54.022;10.760;2023-05-01T00:30:27;102044.94;;;10.20;53.52
30516;BME280;17297;54.022;10.760;2023-05-01T00:32:53;102046.94;;;10.17;53.70
30516;BME280;17297;54.022;10.760;2023-05-01T00:35:18;102037.19;;;10.16;53.58
30516;BME280;17297;54.022;10.760;2023-05-01T00:37:44;102037.31;;;10.15;53.86
30516;BME280;17297;54.022;10.760;2023-05-01T00:40:09;102031.28;;;10.13;53.84
30516;BME280;17297;54.022;10.760;2023-05-01T00:42:36;102026.03;;;10.11;53.73
30516;BME280;17297;54.022;10.760;2023-05-01T00:45:04;102028.06;;;10.09;53.78
30516;BME280;17297;54.022;10.760;2023-05-01T00:47:29;102026.53;;;10.07;53.74
30516;BME280;17297;54.022;10.760;2023-05-01T00:49:55;102031.22;;;10.05;53.81
30516;BME280;17297;54.022;10.760;2023-05-01T00:52:20;102021.63;;;10.02;53.85
30516;BME280;17297;54.022;10.760;2023-05-01T00:54:47;102026.34;;;10.00;53.76
30516;BME280;17297;54.022;10.760;2023-05-01T00:57:20;102024.09;;;9.95;53.94
30516;BME280;17297;54.022;10.760;2023-05-01T00:59:46;102020.72;;;9.93;53.93
30516;BME280;17297;54.022;10.760;2023-05-01T01:02:12;102024.59;;;9.91;53.96
30516;BME280;17297;54.022;10.760;2023-05-01T01:04:41;102017.81;;;9.87;54.15
30516;BME280;17297;54.022;10.760;2023-05-01T01:07:28;102016.28;;;9.84;54.01
30516;BME280;17297;54.022;10.760;2023-05-01T01:12:44;102006.19;;;9.78;54.04
30516;BME280;17297;54.022;10.760;2023-05-01T01:15:52;102003.66;;;9.77;53.95
30516;BME280;17297;54.022;10.760;2023-05-01T01:18:36;101997.06;;;9.71;53.93
30516;BME280;17297;54.022;10.760;2023-05-01T01:24:09;101995.16;;;9.63;54.13
30516;BME280;17297;54.022;10.760;2023-05-01T01:35:00;101987.97;;;9.46;54.32
30516;BME280;17297;54.022;10.760;2023-05-01T01:37:28;101986.28;;;9.45;54.20
30516;BME280;17297;54.022;10.760;2023-05-01T01:40:01;101992.81;;;9.42;54.56
30516;BME280;17297;54.022;10.760;2023-05-01T01:42:34;101987.59;;;9.41;54.41
30516;BME280;17297;54.022;10.760;2023-05-01T01:45:04;101980.69;;;9.38;54.54
30516;BME280;17297;54.022;10.760;2023-05-01T01:47:35;101985.22;;;9.38;54.53
30516;BME280;17297;54.022;10.760;2023-05-01T01:50:04;101986.22;;;9.37;54.46
30516;BME280;17297;54.022;10.760;2023-05-01T01:52:32;101985.38;;;9.36;54.67
30516;BME280;17297;54.022;10.760;2023-05-01T01:55:02;101990.91;;;9.35;54.63
30516;BME280;17297;54.022;10.760;2023-05-01T01:57:31;101993.59;;;9.35;54.53
30516;BME280;17297;54.022;10.760;2023-05-01T01:59:57;101985.69;;;9.33;54.59
30516;BME280;17297;54.022;10.760;2023-05-01T02:02:23;101983.00;;;9.33;54.56
30516;BME280;17297;54.022;10.760;2023-05-01T02:04:52;101984.00;;;9.32;54.60
30516;BME280;17297;54.022;10.760;2023-05-01T02:07:21;101976.91;;;9.31;54.71
30516;BME280;17297;54.022;10.760;2023-05-01T02:09:48;101975.09;;;9.32;54.51
30516;BME280;17297;54.022;10.760;2023-05-01T02:12:15;101973.41;;;9.31;54.67
30516;BME280;17297;54.022;10.760;2023-05-01T02:14:41;101965.50;;;9.29;54.75
30516;BME280;17297;54.022;10.760;2023-05-01T02:17:08;101965.50;;;9.29;54.59
30516;BME280;17297;54.022;10.760;2023-05-01T02:19:36;101964.66;;;9.29;54.56
30516;BME280;17297;54.022;10.760;2023-05-01T02:22:04;101965.81;;;9.26;54.47
30516;BME280;17297;54.022;10.760;2023-05-01T02:24:31;101959.63;;;9.25;54.73
30516;BME280;17297;54.022;10.760;2023-05-01T02:27:00;101954.38;;;9.24;54.48
30516;BME280;17297;54.022;10.760;2023-05-01T02:29:28;101952.53;;;9.24;54.62
30516;BME280;17297;54.022;10.760;2023-05-01T02:31:53;101949.84;;;9.24;54.45
30516;BME280;17297;54.022;10.760;2023-05-01T02:34:19;101952.53;;;9.24;54.66
30516;BME280;17297;54.022;10.760;2023-05-01T02:36:46;101939.94;;;9.25;54.49
30516;BME280;17297;54.022;10.760;2023-05-01T02:39:11;101936.44;;;9.24;54.53
30516;BME280;17297;54.022;10.760;2023-05-01T02:41:38;101937.25;;;9.25;54.62
30516;BME280;17297;54.022;10.760;2023-05-01T02:44:06;101941.66;;;9.26;54.59
30516;BME280;17297;54.022;10.760;2023-05-01T02:46:35;101934.56;;;9.25;54.59
30516;BME280;17297;54.022;10.760;2023-05-01T02:49:02;101935.44;;;9.25;54.62
30516;BME280;17297;54.022;10.760;2023-05-01T02:51:29;101932.75;;;9.25;54.74
30516;BME280;17297;54.022;10.760;2023-05-01T02:53:56;101935.44;;;9.25;54.74
30516;BME280;17297;54.022;10.760;2023-05-01T02:56:24;101926.53;;;9.25;54.68
30516;BME280;17297;54.022;10.760;2023-05-01T02:58:52;101928.22;;;9.26;54.71
30516;BME280;17297;54.022;10.760;2023-05-01T03:01:18;101929.19;;;9.25;54.86
30516;BME280;17297;54.022;10.760;2023-05-01T03:03:44;101923.84;;;9.25;54.64
30516;BME280;17297;54.022;10.760;2023-05-01T03:06:10;101924.84;;;9.24;54.80
30516;BME280;17297;54.022;10.760;2023-05-01T03:08:35;101910.59;;;9.23;54.61
30516;BME280;17297;54.022;10.760;2023-05-01T03:11:04;101915.94;;;9.23;54.90
30516;BME280;17297;54.022;10.760;2023-05-01T03:13:29;101908.03;;;9.22;54.82
30516;BME280;17297;54.022;10.760;2023-05-01T03:15:55;101908.22;;;9.20;54.64
30516;BME280;17297;54.022;10.760;2023-05-01T03:18:20;101912.75;;;9.20;54.70
30516;BME280;17297;54.022;10.760;2023-05-01T03:20:52;101906.66;;;9.18;54.89
30516;BME280;17297;54.022;10.760;2023-05-01T03:23:18;101907.69;;;9.17;54.66
30516;BME280;17297;54.022;10.760;2023-05-01T03:25:44;101908.69;;;9.16;54.54
30516;BME280;17297;54.022;10.760;2023-05-01T03:28:10;101906.00;;;9.16;54.70
30516;BME280;17297;54.022;10.760;2023-05-01T03:30:35;101896.41;;;9.13;54.79
30516;BME280;17297;54.022;10.760;2023-05-01T03:33:01;101893.72;;;9.13;54.76
30516;BME280;17297;54.022;10.760;2023-05-01T03:35:29;101895.72;;;9.11;54.65
30516;BME280;17297;54.022;10.760;2023-05-01T03:37:55;101893.03;;;9.11;54.84
30516;BME280;17297;54.022;10.760;2023-05-01T03:40:39;101894.03;;;9.10;54.79
30516;BME280;17297;54.022;10.760;2023-05-01T03:43:24;101889.66;;;9.09;54.62
30516;BME280;17297;54.022;10.760;2023-05-01T03:45:51;101890.66;;;9.08;54.77
30516;BME280;17297;54.022;10.760;2023-05-01T03:48:17;101882.59;;;9.08;54.88
30516;BME280;17297;54.022;10.760;2023-05-01T03:50:43;101883.63;;;9.07;54.82
30516;BME280;17297;54.022;10.760;2023-05-01T03:53:08;101884.44;;;9.08;54.85
30516;BME280;17297;54.022;10.760;2023-05-01T03:55:34;101877.25;;;9.08;54.87
30516;BME280;17297;54.022;10.760;2023-05-01T03:57:59;101874.41;;;9.10;54.88
30516;BME280;17297;54.022;10.760;2023-05-01T04:00:25;101877.75;;;9.12;54.83
30516;BME280;17297;54.022;10.760;2023-05-01T04:02:51;101872.41;;;9.12;54.98
30516;BME280;17297;54.022;10.760;2023-05-01T04:05:21;101882.69;;;9.16;54.87
30516;BME280;17297;54.022;10.760;2023-05-01T04:07:52;101879.38;;;9.22;54.86
30516;BME280;17297;54.022;10.760;2023-05-01T04:10:17;101872.88;;;9.33;55.05
30516;BME280;17297;54.022;10.760;2023-05-01T04:12:50;101874.38;;;9.54;54.98
30516;BME280;17297;54.022;10.760;2023-05-01T04:15:16;101870.97;;;9.78;55.22
30516;BME280;17297;54.022;10.760;2023-05-01T04:17:41;101867.19;;;9.97;54.93
30516;BME280;17297;54.022;10.760;2023-05-01T04:20:10;101866.91;;;10.08;54.97
30516;BME280;17297;54.022;10.760;2023-05-01T04:22:36;101866.63;;;10.19;54.95
30516;BME280;17297;54.022;10.760;2023-05-01T04:25:02;101863.81;;;10.29;54.67
30516;BME280;17297;54.022;10.760;2023-05-01T04:27:29;101855.75;;;10.37;54.58
30516;BME280;17297;54.022;10.760;2023-05-01T04:29:55;101859.31;;;10.46;54.64
30516;BME280;17297;54.022;10.760;2023-05-01T04:32:21;101856.78;;;10.52;54.50
30516;BME280;17297;54.022;10.760;2023-05-01T04:34:47;101852.28;;;10.61;54.55
30516;BME280;17297;54.022;10.760;2023-05-01T04:37:12;101850.59;;;10.68;54.54
30516;BME280;17297;54.022;10.760;2023-05-01T04:39:38;101843.56;;;10.75;54.33
30516;BME280;17297;54.022;10.760;2023-05-01T04:42:05;101839.16;;;10.82;54.34
30516;BME280;17297;54.022;10.760;2023-05-01T04:44:30;101837.31;;;10.91;54.16
30516;BME280;17297;54.022;10.760;2023-05-01T04:47:00;101832.78;;;11.00;54.19
30516;BME280;17297;54.022;10.760;2023-05-01T04:49:27;101834.78;;;11.14;53.91
30516;BME280;17297;54.022;10.760;2023-05-01T04:51:52;101828.69;;;11.28;53.87
30516;BME280;17297;54.022;10.760;2023-05-01T04:54:19;101826.97;;;11.44;53.70
30516;BME280;17297;54.022;10.760;2023-05-01T04:56:45;101823.22;;;11.61;53.41
30516;BME280;17297;54.022;10.760;2023-05-01T04:59:11;101820.28;;;11.87;53.20
30516;BME280;17297;54.022;10.760;2023-05-01T05:01:36;101822.81;;;12.20;52.95
30516;BME280;17297;54.022;10.760;2023-05-01T05:04:02;101821.34;;;12.40;52.81
30516;BME280;17297;54.022;10.760;2023-05-01T05:06:28;101814.53;;;12.53;52.49
30516;BME280;17297;54.022;10.760;2023-05-01T05:08:54;101818.47;;;12.65;52.24
30516;BME280;17297;54.022;10.760;2023-05-01T05:11:21;101818.69;;;12.78;52.41
30516;BME280;17297;54.022;10.760;2023-05-01T05:13:58;101814.81;;;12.95;52.07
30516;BME280;17297;54.022;10.760;2023-05-01T05:16:24;101814.31;;;13.15;51.83
30516;BME280;17297;54.022;10.760;2023-05-01T05:18:49;101814.28;;;13.38;51.81
30516;BME280;17297;54.022;10.760;2023-05-01T05:21:16;101811.28;;;13.62;51.73
30516;BME280;17297;54.022;10.760;2023-05-01T05:23:48;101813.41;;;13.97;51.42
30516;BME280;17297;54.022;10.760;2023-05-01T05:26:14;101815.13;;;14.19;50.92
30516;BME280;17297;54.022;10.760;2023-05-01T05:28:40;101814.69;;;14.37;50.80
30516;BME280;17297;54.022;10.760;2023-05-01T05:31:06;101810.44;;;14.49;50.57
30516;BME280;17297;54.022;10.760;2023-05-01T05:33:32;101809.50;;;14.57;50.02
30516;BME280;17297;54.022;10.760;2023-05-01T05:35:57;101806.63;;;14.59;49.97
30516;BME280;17297;54.022;10.760;2023-05-01T05:38:26;101808.09;;;14.61;49.92
30516;BME280;17297;54.022;10.760;2023-05-01T05:40:54;101803.97;;;14.65;49.70
30516;BME280;17297;54.022;10.760;2023-05-01T05:43:20;101804.28;;;14.77;49.47
30516;BME280;17297;54.022;10.760;2023-05-01T05:45:46;101808.75;;;14.91;49.48
30516;BME280;17297;54.022;10.760;2023-05-01T05:48:11;101802.16;;;15.00;49.30
30516;BME280;17297;54.022;10.760;2023-05-01T05:50:39;101806.34;;;15.03;48.97
30516;BME280;17297;54.022;10.760;2023-05-01T05:53:05;101802.38;;;14.99;48.75
30516;BME280;17297;54.022;10.760;2023-05-01T05:55:31;101803.16;;;14.93;48.63
30516;BME280;17297;54.022;10.760;2023-05-01T05:58:00;101801.63;;;14.84;48.31
30516;BME280;17297;54.022;10.760;2023-05-01T06:00:25;101802.16;;;14.72;48.60
30516;BME280;17297;54.022;10.760;2023-05-01T06:02:51;101802.47;;;14.63;48.39
30516;BME280;17297;54.022;10.760;2023-05-01T06:05:18;101808.09;;;14.61;48.58
30516;BME280;17297;54.022;10.760;2023-05-01T06:07:44;101808.09;;;14.61;48.38
30516;BME280;17297;54.022;10.760;2023-05-01T06:10:09;101811.81;;;14.60;48.28
30516;BME280;17297;54.022;10.760;2023-05-01T06:12:35;101811.19;;;14.58;48.22
30516;BME280;17297;54.022;10.760;2023-05-01T06:15:03;101805.31;;;14.54;48.20
30516;BME280;17297;54.022;10.760;2023-05-01T06:17:29;101805.50;;;14.53;48.10
30516;BME280;17297;54.022;10.760;2023-05-01T06:19:55;101808.56;;;14.50;48.28
30516;BME280;17297;54.022;10.760;2023-05-01T06:22:21;101803.63;;;14.53;48.24
30516;BME280;17297;54.022;10.760;2023-05-01T06:25:15;101793.69;;;14.61;48.01
30516;BME280;17297;54.022;10.760;2023-05-01T06:27:41;101788.81;;;14.71;47.98
30516;BME280;17297;54.022;10.760;2023-05-01T06:30:07;101786.00;;;14.86;47.99
30516;BME280;17297;54.022;10.760;2023-05-01T06:32:35;101780.31;;;15.02;47.81
30516;BME280;17297;54.022;10.760;2023-05-01T06:35:01;101786.06;;;15.20;47.66
30516;BME280;17297;54.022;10.760;2023-05-01T06:37:26;101786.88;;;15.49;47.98
30516;BME280;17297;54.022;10.760;2023-05-01T06:39:52;101780.84;;;15.95;47.58
30516;BME280;17297;54.022;10.760;2023-05-01T06:42:17;101778.03;;;16.43;47.17
30516;BME280;17297;54.022;10.760;2023-05-01T06:44:45;101774.72;;;16.88;46.77
30516;BME280;17297;54.022;10.760;2023-05-01T06:47:11;101766.94;;;17.24;46.67
30516;BME280;17297;54.022;10.760;2023-05-01T06:49:38;101765.59;;;17.53;45.65
30516;BME280;17297;54.022;10.760;2023-05-01T06:52:05;101765.66;;;17.98;45.84
30516;BME280;17297;54.022;10.760;2023-05-01T06:54:31;101760.38;;;18.67;45.36
30516;BME280;17297;54.022;10.760;2023-05-01T06:56:56;101748.13;;;19.45;44.24
30516;BME280;17297;54.022;10.760;2023-05-01T06:59:22;101741.66;;;20.06;43.67
30516;BME280;17297;54.022;10.760;2023-05-01T07:01:47;101747.66;;;20.57;42.93
30516;BME280;17297;54.022;10.760;2023-05-01T07:04:12;101739.47;;;21.04;42.22
30516;BME280;17297;54.022;10.760;2023-05-01T07:06:38;101727.69;;;21.38;41.15
30516;BME280;17297;54.022;10.760;2023-05-01T07:09:04;101723.84;;;21.80;40.97
30516;BME280;17297;54.022;10.760;2023-05-01T07:11:29;101722.66;;;22.33;40.79
30516;BME280;17297;54.022;10.760;2023-05-01T07:13:55;101715.69;;;22.76;39.90
30516;BME280;17297;54.022;10.760;2023-05-01T07:16:20;101709.44;;;22.97;38.89
30516;BME280;17297;54.022;10.760;2023-05-01T07:18:46;101710.34;;;22.86;38.64
30516;BME280;17297;54.022;10.760;2023-05-01T07:21:11;101712.22;;;22.47;38.62
30516;BME280;17297;54.022;10.760;2023-05-01T07:23:37;101707.22;;;21.98;38.94
30516;BME280;17297;54.022;10.760;2023-05-01T07:26:03;101703.03;;;21.50;38.94
30516;BME280;17297;54.022;10.760;2023-05-01T07:28:29;101707.72;;;21.03;39.03
30516;BME280;17297;54.022;10.760;2023-05-01T07:30:54;101702.13;;;20.50;39.27
30516;BME280;17297;54.022;10.760;2023-05-01T07:33:19;101702.09;;;19.97;39.67
30516;BME280;17297;54.022;10.760;2023-05-01T07:35:45;101701.84;;;19.50;39.68
30516;BME280;17297;54.022;10.760;2023-05-01T07:38:10;101696.34;;;19.01;40.38
30516;BME280;17297;54.022;10.760;2023-05-01T07:40:36;101699.22;;;18.63;40.51
30516;BME280;17297;54.022;10.760;2023-05-01T07:43:02;101696.28;;;18.39;40.86
30516;BME280;17297;54.022;10.760;2023-05-01T07:45:28;101697.84;;;18.22;41.42
30516;BME280;17297;54.022;10.760;2023-05-01T07:47:53;101694.16;;;18.10;41.46
30516;BME280;17297;54.022;10.760;2023-05-01T07:50:19;101695.53;;;17.94;41.47
30516;BME280;17297;54.022;10.760;2023-05-01T07:52:44;101698.56;;;17.79;41.66
30516;BME280;17297;54.022;10.760;2023-05-01T07:55:10;101691.69;;;17.70;41.66
30516;BME280;17297;54.022;10.760;2023-05-01T07:57:36;101685.66;;;17.61;42.07
30516;BME280;17297;54.022;10.760;2023-05-01T08:00:01;101683.38;;;17.58;41.62
30516;BME280;17297;54.022;10.760;2023-05-01T08:02:26;101678.56;;;17.53;41.68
30516;BME280;17297;54.022;10.760;2023-05-01T08:04:52;101680.44;;;17.53;41.79
30516;BME280;17297;54.022;10.760;2023-05-01T08:07:17;101671.03;;;17.55;42.10
30516;BME280;17297;54.022;10.760;2023-05-01T08:09:43;101668.09;;;17.57;42.13
30516;BME280;17297;54.022;10.760;2023-05-01T08:12:08;101658.47;;;17.54;41.67
30516;BME280;17297;54.022;10.760;2023-05-01T08:14:33;101665.00;;;17.47;41.54
30516;BME280;17297;54.022;10.760;2023-05-01T08:16:59;101670.47;;;17.40;41.86
30516;BME280;17297;54.022;10.760;2023-05-01T08:19:24;101660.66;;;17.39;41.55
30516;BME280;17297;54.022;10.760;2023-05-01T08:21:52;101654.19;;;17.34;40.94
30516;BME280;17297;54.022;10.760;2023-05-01T08:24:17;101664.47;;;17.25;41.64
30516;BME280;17297;54.022;10.760;2023-05-01T08:26:42;101657.56;;;17.22;41.56
30516;BME280;17297;54.022;10.760;2023-05-01T08:29:08;101656.53;;;17.23;41.88
30516;BME280;17297;54.022;10.760;2023-05-01T08:31:34;101661.97;;;17.23;41.69
30516;BME280;17297;54.022;10.760;2023-05-01T08:34:02;101650.25;;;17.23;41.91
30516;BME280;17297;54.022;10.760;2023-05-01T08:36:27;101657.75;;;17.27;41.78
30516;BME280;17297;54.022;10.760;2023-05-01T08:38:52;101656.69;;;17.28;41.13
30516;BME280;17297;54.022;10.760;2023-05-01T08:41:20;101649.84;;;17.26;40.79
30516;BME280;17297;54.022;10.760;2023-05-01T08:43:47;101653.38;;;17.26;41.03
30516;BME280;17297;54.022;10.760;2023-05-01T08:46:20;101648.34;;;17.30;41.01
30516;BME280;17297;54.022;10.760;2023-05-01T08:51:57;101643.47;;;17.45;41.45
30516;BME280;17297;54.022;10.760;2023-05-01T08:54:26;101640.28;;;17.55;41.20
30516;BME280;17297;54.022;10.760;2023-05-01T08:56:52;101637.06;;;17.65;40.81
30516;BME280;17297;54.022;10.760;2023-05-01T08:59:18;101629.69;;;17.72;40.79
30516;BME280;17297;54.022;10.760;2023-05-01T09:01:45;101636.81;;;17.80;40.27
30516;BME280;17297;54.022;10.760;2023-05-01T09:04:12;101627.59;;;17.81;39.70
30516;BME280;17297;54.022;10.760;2023-05-01T09:06:38;101624.66;;;17.82;39.91
30516;BME280;17297;54.022;10.760;2023-05-01T09:09:04;101625.03;;;17.86;40.21
30516;BME280;17297;54.022;10.760;2023-05-01T09:11:29;101624.16;;;17.92;39.94
30516;BME280;17297;54.022;10.760;2023-05-01T09:13:55;101616.16;;;17.97;40.07
30516;BME280;17297;54.022;10.760;2023-05-01T09:16:21;101617.78;;;18.05;39.99
30516;BME280;17297;54.022;10.760;2023-05-01T09:18:47;101607.91;;;18.10;39.61
30516;BME280;17297;54.022;10.760;2023-05-01T09:21:13;101605.94;;;18.17;40.13
30516;BME280;17297;54.022;10.760;2023-05-01T09:23:38;101598.16;;;18.21;39.69
30516;BME280;17297;54.022;10.760;2023-05-01T09:26:05;101603.78;;;18.26;39.89
30516;BME280;17297;54.022;10.760;2023-05-01T09:28:44;101585.47;;;18.33;40.36
30516;BME280;17297;54.022;10.760;2023-05-01T09:31:20;101583.97;;;18.37;38.89
30516;BME280;17297;54.022;10.760;2023-05-01T09:33:54;101586.31;;;18.34;39.07
30516;BME280;17297;54.022;10.760;2023-05-01T09:36:19;101589.28;;;18.32;39.13
30516;BME280;17297;54.022;10.760;2023-05-01T09:38:45;101584.41;;;18.34;39.42
30516;BME280;17297;54.022;10.760;2023-05-01T09:41:11;101592.97;;;18.38;39.24
30516;BME280;17297;54.022;10.760;2023-05-01T09:43:36;101582.94;;;18.38;39.08
30516;BME280;17297;54.022;10.760;2023-05-01T09:46:05;101584.59;;;18.39;39.10
30516;BME280;17297;54.022;10.760;2023-05-01T09:48:31;101583.31;;;18.42;39.54
30516;BME280;17297;54.022;10.760;2023-05-01T09:50:57;101577.16;;;18.46;39.66
30516;BME280;17297;54.022;10.760;2023-05-01T09:53:36;101577.09;;;18.53;39.93
30516;BME280;17297;54.022;10.760;2023-05-01T09:56:02;101573.72;;;18.58;39.09
30516;BME280;17297;54.022;10.760;2023-05-01T09:58:28;101569.47;;;18.62;38.64
30516;BME280;17297;54.022;10.760;2023-05-01T10:00:53;101573.03;;;18.62;38.67
30516;BME280;17297;54.022;10.760;2023-05-01T10:03:19;101565.28;;;18.59;39.06
30516;BME280;17297;54.022;10.760;2023-05-01T10:05:44;101563.44;;;18.60;38.60
30516;BME280;17297;54.022;10.760;2023-05-01T10:08:10;101565.91;;;18.61;39.05
30516;BME280;17297;54.022;10.760;2023-05-01T10:10:39;101557.28;;;18.64;39.22
30516;BME280;17297;54.022;10.760;2023-05-01T10:13:17;101544.28;;;18.66;38.60
30516;BME280;17297;54.022;10.760;2023-05-01T10:15:44;101540.94;;;18.64;37.88
30516;BME280;17297;54.022;10.760;2023-05-01T10:18:11;101548.75;;;18.61;37.60
30516;BME280;17297;54.022;10.760;2023-05-01T10:20:38;101537.59;;;18.62;38.51
30516;BME280;17297;54.022;10.760;2023-05-01T10:23:03;101533.38;;;18.66;38.04
30516;BME280;17297;54.022;10.760;2023-05-01T10:25:30;101534.34;;;18.72;38.54
30516;BME280;17297;54.022;10.760;2023-05-01T10:27:56;101538.91;;;18.78;38.49
30516;BME280;17297;54.022;10.760;2023-05-01T10:30:21;101540.72;;;18.84;38.18
30516;BME280;17297;54.022;10.760;2023-05-01T10:32:47;101535.41;;;18.89;38.27
30516;BME280;17297;54.022;10.760;2023-05-01T10:35:18;101521.78;;;18.89;37.71
30516;BME280;17297;54.022;10.760;2023-05-01T10:37:58;101517.16;;;18.90;37.46
30516;BME280;17297;54.022;10.760;2023-05-01T10:40:46;101517.16;;;18.90;36.99
30516;BME280;17297;54.022;10.760;2023-05-01T10:43:13;101508.63;;;18.86;36.38
30516;BME280;17297;54.022;10.760;2023-05-01T10:45:40;101504.47;;;18.84;36.82
30516;BME280;17297;54.022;10.760;2023-05-01T10:48:05;101506.97;;;18.85;36.80
30516;BME280;17297;54.022;10.760;2023-05-01T10:50:32;101496.06;;;18.85;36.77
30516;BME280;17297;54.022;10.760;2023-05-01T10:55:43;101502.56;;;18.84;36.40
30516;BME280;17297;54.022;10.760;2023-05-01T10:58:10;101494.38;;;18.84;36.39
30516;BME280;17297;54.022;10.760;2023-05-01T11:00:35;101494.00;;;18.81;36.69
30516;BME280;17297;54.022;10.760;2023-05-01T11:06:04;101487.06;;;18.85;37.14
30516;BME280;17297;54.022;10.760;2023-05-01T11:08:37;101481.81;;;18.83;36.35
30516;BME280;17297;54.022;10.760;2023-05-01T11:14:05;101477.56;;;18.69;35.57
30516;BME280;17297;54.022;10.760;2023-05-01T11:21:48;101469.63;;;18.67;36.79
30516;BME280;17297;54.022;10.760;2023-05-01T11:24:15;101471.47;;;18.74;36.94
30516;BME280;17297;54.022;10.760;2023-05-01T11:26:42;101473.91;;;18.82;36.44
30516;BME280;17297;54.022;10.760;2023-05-01T11:29:08;101467.13;;;18.84;35.45
30516;BME280;17297;54.022;10.760;2023-05-01T11:31:35;101463.56;;;18.84;36.25
30516;BME280;17297;54.022;10.760;2023-05-01T11:34:01;101463.94;;;18.87;36.57
30516;BME280;17297;54.022;10.760;2023-05-01T11:36:28;101452.34;;;18.92;36.40
30516;BME280;17297;54.022;10.760;2023-05-01T11:38:54;101457.47;;;19.00;36.49
30516;BME280;17297;54.022;10.760;2023-05-01T11:41:24;101451.09;;;19.06;35.92
30516;BME280;17297;54.022;10.760;2023-05-01T11:43:57;101449.13;;;19.13;36.42
30516;BME280;17297;54.022;10.760;2023-05-01T11:46:26;101446.28;;;19.20;36.38
30516;BME280;17297;54.022;10.760;2023-05-01T11:48:53;101436.34;;;19.26;36.35
30516;BME280;17297;54.022;10.760;2023-05-01T11:51:18;101437.28;;;19.31;36.14
30516;BME280;17297;54.022;10.760;2023-05-01T11:54:16;101425.53;;;19.31;35.96
30516;BME280;17297;54.022;10.760;2023-05-01T11:56:41;101422.69;;;19.26;35.42
30516;BME280;17297;54.022;10.760;2023-05-01T11:59:14;101416.41;;;19.25;36.12
30516;BME280;17297;54.022;10.760;2023-05-01T12:01:42;101407.53;;;19.30;35.66
30516;BME280;17297;54.022;10.760;2023-05-01T12:04:09;101410.59;;;19.33;35.67
30516;BME280;17297;54.022;10.760;2023-05-01T12:06:44;101414.28;;;19.39;36.11
30516;BME280;17297;54.022;10.760;2023-05-01T12:09:16;101401.63;;;19.45;36.61
30516;BME280;17297;54.022;10.760;2023-05-01T12:11:42;101403.03;;;19.47;35.77
30516;BME280;17297;54.022;10.760;2023-05-01T12:14:10;101394.59;;;19.49;35.71
30516;BME280;17297;54.022;10.760;2023-05-01T12:16:36;101405.03;;;19.52;35.38
30516;BME280;17297;54.022;10.760;2023-05-01T12:19:05;101396.16;;;19.56;35.42
30516;BME280;17297;54.022;10.760;2023-05-01T12:21:31;101393.53;;;19.61;35.58
30516;BME280;17297;54.022;10.760;2023-05-01T12:24:06;101396.88;;;19.64;35.49
30516;BME280;17297;54.022;10.760;2023-05-01T12:26:32;101392.88;;;19.66;34.91
30516;BME280;17297;54.022;10.760;2023-05-01T12:28:59;101394.28;;;19.69;34.74
30516;BME280;17297;54.022;10.760;2023-05-01T12:31:25;101386.09;;;19.69;34.77
30516;BME280;17297;54.022;10.760;2023-05-01T12:34:02;101389.28;;;19.66;34.40
30516;BME280;17297;54.022;10.760;2023-05-01T12:36:30;101384.91;;;19.65;34.56
30516;BME280;17297;54.022;10.760;2023-05-01T12:41:35;101378.75;;;19.69;34.87
30516;BME280;17297;54.022;10.760;2023-05-01T12:44:00;101370.09;;;19.72;34.54
30516;BME280;17297;54.022;10.760;2023-05-01T12:46:26;101363.06;;;19.76;34.36
30516;BME280;17297;54.022;10.760;2023-05-01T12:48:52;101367.44;;;19.77;34.59
30516;BME280;17297;54.022;10.760;2023-05-01T12:51:18;101362.34;;;19.81;34.99
30516;BME280;17297;54.022;10.760;2023-05-01T12:53:44;101360.00;;;19.84;34.16
30516;BME280;17297;54.022;10.760;2023-05-01T12:56:20;101356.78;;;19.88;33.25
30516;BME280;17297;54.022;10.760;2023-05-01T12:58:47;101349.06;;;19.84;33.49
30516;BME280;17297;54.022;10.760;2023-05-01T13:01:22;101351.53;;;19.86;33.99
30516;BME280;17297;54.022;10.760;2023-05-01T13:03:49;101351.88;;;19.90;34.19
30516;BME280;17297;54.022;10.760;2023-05-01T13:06:15;101351.41;;;19.93;34.16
30516;BME280;17297;54.022;10.760;2023-05-01T13:08:40;101341.09;;;19.95;34.09
30516;BME280;17297;54.022;10.760;2023-05-01T13:11:11;101341.66;;;19.97;34.02
30516;BME280;17297;54.022;10.760;2023-05-01T13:13:37;101343.34;;;19.98;34.32
30516;BME280;17297;54.022;10.760;2023-05-01T13:16:08;101341.66;;;19.97;34.35
30516;BME280;17297;54.022;10.760;2023-05-01T13:18:42;101335.63;;;19.95;34.57